»·PEaware :: N973DM KBFL-KSBA

N973DM :: KBFL-KSBA

FLIGHT INFORMATION

Flight Status: Arrived
Operator: Privately registered:
United States
More flights under this callsign
Pilot: Anonymous 1328 (1328)
Aircraft: CIRRUS SR-20
(SR20)
More flights by this aircraft type
Origin: KBFL Meadows
United States
Destination: KSBA Santa Barbara Mun
United States
More flights between these airports :: More routes between these airports
Route: MARIC3 MARIC V183 RZS
File this flight plan on PilotEdge
Remarks: WILL HAVE FULL IFR TO MIN ON ROUTE.
Altitude:
(Current/Filed)
9,000ft
Speed:
(Current/Filed)
145kts
Departed: 07-Jan-14 07:53 PM
Arrived: 07-Jan-14 08:44 PM
Distance/Time
Traveled:
71nm/0:51
Distance/Time
To Go:
Arrived

Flight Plot

Page will automatically refresh every two minutes.


Map Options




Map Legend


Flown Route
Filed Route
Departure Airport
Arrival Airport
Navaid (VOR, NDB)
Fix

Horizontal Profiles

Position Reports

Time Latitude Longitude Heading Altitude Ground
Speed
07-Jan-14 19:18 35.442468 -119.064305 307 509ft 0kts
07-Jan-14 19:19 35.442468 -119.064305 307 509ft 0kts
07-Jan-14 19:20 35.442468 -119.064305 307 509ft 0kts
07-Jan-14 19:21 35.442468 -119.064305 307 509ft 0kts
07-Jan-14 19:22 35.442468 -119.064305 307 509ft 0kts
07-Jan-14 19:23 35.442468 -119.064305 307 509ft 0kts
07-Jan-14 19:24 35.442468 -119.064305 307 509ft 0kts
07-Jan-14 19:25 35.442468 -119.064305 307 509ft 0kts
07-Jan-14 19:26 35.442468 -119.064305 307 509ft 0kts
07-Jan-14 19:27 35.442468 -119.064305 307 509ft 0kts
07-Jan-14 19:28 35.442468 -119.064305 307 509ft 0kts
07-Jan-14 19:29 35.442468 -119.064305 307 509ft 0kts
07-Jan-14 19:30 35.442468 -119.064305 307 509ft 0kts
07-Jan-14 19:31 35.442468 -119.064305 307 509ft 0kts
07-Jan-14 19:36 35.429527 -119.047062 135 509ft 0kts
07-Jan-14 19:37 35.429527 -119.047062 135 509ft 0kts
07-Jan-14 19:38 35.429527 -119.047062 135 509ft 0kts
07-Jan-14 19:39 35.429527 -119.047062 135 509ft 0kts
07-Jan-14 19:40 35.429527 -119.047062 135 509ft 0kts
07-Jan-14 19:41 35.429527 -119.047062 135 509ft 0kts
07-Jan-14 19:42 35.429527 -119.047062 135 509ft 0kts
07-Jan-14 19:43 35.429527 -119.047062 135 509ft 0kts
07-Jan-14 19:44 35.429527 -119.047062 135 509ft 0kts
07-Jan-14 19:46 35.427946 -119.045041 141 509ft 15kts
07-Jan-14 19:47 35.426226 -119.044530 191 509ft 0kts
07-Jan-14 19:48 35.426160 -119.044545 188 509ft 0kts
07-Jan-14 19:49 35.425516 -119.045310 273 509ft 0kts
07-Jan-14 19:50 35.425516 -119.045310 273 509ft 0kts
07-Jan-14 19:51 35.426713 -119.047613 315 509ft 50kts
07-Jan-14 19:52 35.444946 -119.070506 310 890ft 119kts
07-Jan-14 19:53 35.435028 -119.102837 230 1715ft 107kts
07-Jan-14 19:54 35.418809 -119.133913 255 2700ft 88kts
07-Jan-14 19:55 35.406983 -119.165586 247 3287ft 115kts
07-Jan-14 19:56 35.396943 -119.201817 217 3945ft 118kts
07-Jan-14 19:57 35.367856 -119.213058 198 4750ft 108kts
07-Jan-14 19:58 35.340380 -119.222703 187 5626ft 76kts
07-Jan-14 19:59 35.314782 -119.233735 200 6017ft 111kts
07-Jan-14 20:00 35.285180 -119.247669 200 6584ft 114kts
07-Jan-14 20:01 35.255162 -119.261649 200 7138ft 115kts
07-Jan-14 20:02 35.225851 -119.277951 209 7656ft 116kts
07-Jan-14 20:03 35.197566 -119.297663 209 8144ft 117kts
07-Jan-14 20:04 35.169053 -119.317487 209 8647ft 118kts
07-Jan-14 20:05 35.139801 -119.337780 209 8985ft 132kts
07-Jan-14 20:06 35.105242 -119.361740 209 8981ft 149kts
07-Jan-14 20:07 35.074608 -119.382956 209 8980ft 153kts
07-Jan-14 20:08 35.037767 -119.408444 209 8979ft 151kts
07-Jan-14 20:09 35.001293 -119.433650 209 8980ft 150kts
07-Jan-14 20:10 34.958948 -119.462881 209 8980ft 149kts
07-Jan-14 20:11 34.928800 -119.483670 209 8980ft 149kts
07-Jan-14 20:12 34.892415 -119.508737 209 8980ft 149kts
07-Jan-14 20:13 34.856167 -119.533684 209 8980ft 149kts
07-Jan-14 20:14 34.820063 -119.558507 209 9000ft 149kts
07-Jan-14 20:15 34.783868 -119.583367 209 9000ft 149kts
07-Jan-14 20:16 34.747614 -119.608243 209 9000ft 149kts
07-Jan-14 20:17 34.711311 -119.633126 209 9000ft 149kts
07-Jan-14 20:18 34.674977 -119.658005 209 9000ft 149kts
07-Jan-14 20:19 34.638616 -119.682879 209 9000ft 149kts
07-Jan-14 20:20 34.602400 -119.707627 209 9000ft 149kts
07-Jan-14 20:21 34.565819 -119.732600 209 9000ft 149kts
07-Jan-14 20:22 34.529544 -119.757339 209 9000ft 149kts
07-Jan-14 20:23 34.491908 -119.785746 215 8284ft 167kts
07-Jan-14 20:24 34.456474 -119.815157 214 7264ft 145kts
07-Jan-14 20:25 34.424248 -119.841867 214 6257ft 137kts
07-Jan-14 20:26 34.392925 -119.867805 214 5257ft 141kts
07-Jan-14 20:27 34.375120 -119.903732 264 4993ft 117kts
07-Jan-14 20:28 34.371974 -119.941944 264 4999ft 114kts
07-Jan-14 20:29 34.368817 -119.980290 264 4999ft 114kts
07-Jan-14 20:30 34.365634 -120.018841 264 4999ft 115kts
07-Jan-14 20:31 34.362432 -120.057512 264 4999ft 115kts
07-Jan-14 20:32 34.359225 -120.096119 264 4999ft 115kts
07-Jan-14 20:33 34.378492 -120.113721 12 5000ft 114kts
07-Jan-14 20:34 34.409191 -120.103852 13 4999ft 114kts
07-Jan-14 20:35 34.423264 -120.075469 88 4968ft 117kts
07-Jan-14 20:36 34.424226 -120.031463 88 4429ft 105kts
07-Jan-14 20:37 34.424403 -119.992129 88 2974ft 135kts
07-Jan-14 20:38 34.425215 -119.946798 87 1663ft 130kts
07-Jan-14 20:39 34.426020 -119.906002 88 891ft 112kts
07-Jan-14 20:40 34.426941 -119.873771 93 365ft 84kts
07-Jan-14 20:41 34.427632 -119.843509 90 15ft 58kts
07-Jan-14 20:42 34.429423 -119.838396 343 15ft 0kts

Navigation Log

Ident Type
Flight plan parsing failed, navigation log unavailable